Time;durP1;ratioP1;P1;durP2;ratioP2;P2;SDS_P1;SDS_P2;PMS_P1;PMS_P2;Temp;Humidity;BMP_temperature;BMP_pressure;BME280_temperature;BME280_humidity;BME280_pressure;Samples;Min_cycle;Max_cycle;Signal;HPM_P1;HPM_P2
2022/03/20 00:01:59;;;;;;;9.40;3.67;;;;;;;4.41;67.36;103144.84;5234609;28;20521;-67
2022/03/20 00:04:30;;;;;;;7.15;3.30;;;;;;;4.40;67.37;103139.59;5241787;28;20550;-67
2022/03/20 00:07:02;;;;;;;7.93;3.33;;;;;;;4.29;67.47;103130.00;5236699;28;20465;-67
2022/03/20 00:09:33;;;;;;;9.02;3.72;;;;;;;4.34;68.14;103129.09;5239160;28;20056;-67
2022/03/20 00:12:05;;;;;;;10.05;4.32;;;;;;;4.34;68.14;103126.47;5234718;28;20442;-67
2022/03/20 00:14:36;;;;;;;8.93;3.88;;;;;;;4.30;68.21;103120.34;5235896;28;20045;-67
2022/03/20 00:17:07;;;;;;;10.05;4.15;;;;;;;4.28;68.49;103125.63;5230374;28;20040;-67
2022/03/20 00:19:39;;;;;;;7.70;3.97;;;;;;;4.28;68.02;103115.06;5232441;28;20435;-66
2022/03/20 00:22:11;;;;;;;7.93;4.32;;;;;;;4.24;69.57;103118.66;5228237;28;20479;-67
2022/03/20 00:24:44;;;;;;;9.50;4.53;;;;;;;4.21;69.27;103115.16;5224405;28;20121;-67
2022/03/20 00:27:16;;;;;;;8.00;4.23;;;;;;;4.18;69.61;103107.28;5230129;28;20037;-67
2022/03/20 00:29:47;;;;;;;11.80;5.47;;;;;;;4.11;69.95;103109.13;5227922;28;20725;-67
2022/03/20 00:32:21;;;;;;;8.68;4.78;;;;;;;4.10;70.05;103099.44;5231735;28;20498;-67
2022/03/20 00:34:57;;;;;;;11.25;5.25;;;;;;;4.07;70.50;103096.88;5232925;28;20035;-67
2022/03/20 00:37:28;;;;;;;13.10;5.57;;;;;;;4.04;70.43;103087.19;5224003;28;20648;-67
2022/03/20 00:40:00;;;;;;;9.98;5.50;;;;;;;3.97;70.23;103080.25;5234765;28;20059;-67
2022/03/20 00:42:31;;;;;;;11.10;5.05;;;;;;;3.97;70.23;103077.63;5233279;28;20037;-67
2022/03/20 00:45:04;;;;;;;14.35;5.85;;;;;;;3.96;70.38;103069.72;5237958;28;20035;-67
2022/03/20 00:47:36;;;;;;;10.23;5.40;;;;;;;3.92;70.52;103068.88;5241472;28;20038;-66
2022/03/20 00:50:07;;;;;;;10.85;5.75;;;;;;;3.89;70.55;103066.25;5236823;28;20029;-67
2022/03/20 00:52:39;;;;;;;11.05;5.50;;;;;;;3.85;70.47;103057.50;5229523;28;20443;-67
2022/03/20 00:55:10;;;;;;;13.43;5.93;;;;;;;3.80;70.89;103061.13;5234407;28;20111;-67
2022/03/20 00:57:42;;;;;;;15.75;6.00;;;;;;;3.76;71.86;103065.56;5241835;28;20618;-67
2022/03/20 01:00:13;;;;;;;10.27;5.78;;;;;;;3.72;71.81;103053.25;5238007;28;21580;-67
2022/03/20 01:02:45;;;;;;;11.77;6.22;;;;;;;3.75;73.56;103055.88;5232300;28;20057;-67
2022/03/20 01:05:16;;;;;;;13.90;6.43;;;;;;;3.70;73.02;103057.69;5232779;28;20098;-67
2022/03/20 01:07:48;;;;;;;12.98;6.57;;;;;;;3.60;71.97;103045.50;5239157;28;20056;-67
2022/03/20 01:10:19;;;;;;;16.70;7.20;;;;;;;3.60;72.25;103037.59;5237603;28;20028;-67
2022/03/20 01:12:51;;;;;;;14.63;7.72;;;;;;;3.54;72.44;103044.66;5230630;28;20028;-67
2022/03/20 01:15:22;;;;;;;13.07;7.30;;;;;;;3.52;71.96;103040.31;5237688;28;20215;-67
2022/03/20 01:17:53;;;;;;;15.32;7.63;;;;;;;3.49;72.89;103042.97;5236021;28;20805;-67
2022/03/20 01:20:25;;;;;;;13.88;7.20;;;;;;;3.45;72.95;103028.06;5235308;28;20037;-66
2022/03/20 01:22:56;;;;;;;14.73;7.43;;;;;;;3.44;72.86;103031.63;5233162;28;20811;-67
2022/03/20 01:25:27;;;;;;;13.68;6.80;;;;;;;3.44;73.40;103026.34;5243703;28;20414;-67
2022/03/20 01:27:58;;;;;;;13.45;6.70;;;;;;;3.42;73.72;103020.22;5238698;28;20398;-67
2022/03/20 01:30:30;;;;;;;15.18;7.68;;;;;;;3.38;73.22;103016.72;5243548;28;20587;-66
2022/03/20 01:33:02;;;;;;;14.93;6.88;;;;;;;3.33;73.13;103006.22;5233980;28;20746;-67
2022/03/20 01:35:33;;;;;;;13.45;7.47;;;;;;;3.32;73.99;103007.13;5232011;28;20498;-67
2022/03/20 01:38:05;;;;;;;14.70;7.38;;;;;;;3.30;73.44;103000.97;5241831;28;20045;-67
2022/03/20 01:40:36;;;;;;;13.13;8.13;;;;;;;3.22;73.23;102999.31;5239502;28;20508;-67
2022/03/20 01:43:08;;;;;;;16.25;8.52;;;;;;;3.25;73.67;102992.25;5244654;28;20956;-67
2022/03/20 01:45:40;;;;;;;15.38;8.98;;;;;;;3.23;73.24;102985.25;5251691;28;20112;-67
2022/03/20 01:48:11;;;;;;;18.20;8.80;;;;;;;3.20;73.40;102980.84;5240044;28;20037;-66
2022/03/20 01:50:42;;;;;;;15.88;9.35;;;;;;;3.15;74.07;102980.06;5240371;28;20037;-67
2022/03/20 01:53:17;;;;;;;15.68;9.18;;;;;;;3.17;74.19;102974.75;5250506;28;20119;-67
2022/03/20 01:55:50;;;;;;;16.50;10.38;;;;;;;3.11;74.40;102968.66;5240966;28;20029;-66
2022/03/20 01:58:22;;;;;;;15.85;10.43;;;;;;;3.07;73.80;102968.72;5246009;28;20427;-66
2022/03/20 02:00:53;;;;;;;18.90;11.45;;;;;;;3.06;74.35;102972.22;5242845;28;20107;-66
2022/03/20 02:03:24;;;;;;;19.75;11.07;;;;;;;3.02;74.78;102968.75;5242533;28;20514;-66
2022/03/20 02:05:56;;;;;;;18.85;11.63;;;;;;;2.99;73.97;102965.28;5242199;28;20025;-66
2022/03/20 02:08:30;;;;;;;18.52;11.75;;;;;;;2.98;74.72;102964.41;5239329;28;20033;-66
2022/03/20 02:11:01;;;;;;;19.80;12.23;;;;;;;2.96;74.05;102952.13;5242107;28;20033;-67
2022/03/20 02:13:34;;;;;;;20.73;13.40;;;;;;;2.94;74.19;102947.75;5250823;28;20061;-66
2022/03/20 02:16:05;;;;;;;20.08;13.40;;;;;;;2.92;74.15;102938.09;5241192;28;20044;-66
2022/03/20 02:18:37;;;;;;;21.98;13.80;;;;;;;2.89;73.99;102939.00;5245126;28;20033;-66
2022/03/20 02:21:09;;;;;;;21.08;13.90;;;;;;;2.89;73.87;102936.34;5251373;28;20083;-66
2022/03/20 02:23:41;;;;;;;22.52;14.30;;;;;;;2.86;74.44;102938.19;5248606;28;20025;-67
2022/03/20 02:26:13;;;;;;;23.85;15.20;;;;;;;2.87;75.10;102930.22;5241863;28;20043;-67
2022/03/20 02:28:44;;;;;;;22.88;15.07;;;;;;;2.83;74.15;102932.94;5240517;28;21086;-66
2022/03/20 02:31:15;;;;;;;25.13;15.27;;;;;;;2.78;74.60;102930.34;5243731;28;20184;-66
2022/03/20 02:33:46;;;;;;;22.15;14.85;;;;;;;2.78;74.12;102921.53;5246258;28;20348;-66
2022/03/20 02:36:18;;;;;;;24.00;15.43;;;;;;;2.75;73.79;102927.72;5244553;28;20037;-66
2022/03/20 02:38:49;;;;;;;26.90;16.25;;;;;;;2.73;74.28;102917.19;5241790;28;20104;-66
2022/03/20 02:41:20;;;;;;;23.17;15.00;;;;;;;2.74;73.20;102912.78;5245867;28;20510;-66
2022/03/20 02:43:52;;;;;;;26.15;16.50;;;;;;;2.74;74.48;102916.31;5244092;28;20740;-67
2022/03/20 02:46:23;;;;;;;24.38;16.67;;;;;;;2.72;73.30;102909.31;5247589;28;20033;-66
2022/03/20 02:48:55;;;;;;;26.33;16.42;;;;;;;2.71;73.95;102903.16;5243974;28;20522;-67
2022/03/20 02:51:27;;;;;;;26.48;16.10;;;;;;;2.71;73.01;102902.31;5249623;28;20051;-66
2022/03/20 02:53:58;;;;;;;27.30;17.25;;;;;;;2.74;73.52;102899.63;5243877;28;20029;-67
2022/03/20 02:56:29;;;;;;;29.70;17.40;;;;;;;2.74;73.69;102903.16;5247292;28;20042;-66
2022/03/20 02:59:02;;;;;;;26.02;16.33;;;;;;;2.73;73.07;102897.88;5242446;28;20053;-66
2022/03/20 03:01:33;;;;;;;29.77;17.90;;;;;;;2.69;73.24;102894.41;5246164;28;20036;-66
2022/03/20 03:04:05;;;;;;;23.98;16.30;;;;;;;2.71;74.39;102894.41;5242615;28;20035;-66
2022/03/20 03:06:37;;;;;;;27.33;16.48;;;;;;;2.71;73.16;102887.34;5246987;28;20363;-66
2022/03/20 03:11:58;;;;;;;28.13;17.63;;;;;;;2.65;73.84;102886.56;5243945;28;20100;-66
2022/03/20 03:17:27;;;;;;;28.65;18.38;;;;;;;2.60;73.90;102872.53;5252097;28;20033;-67
2022/03/20 03:19:58;;;;;;;25.77;16.90;;;;;;;2.60;73.72;102870.78;5245029;28;20032;-67
2022/03/20 03:22:30;;;;;;;30.58;19.05;;;;;;;2.59;73.59;102865.50;5249185;28;20036;-66
2022/03/20 03:25:01;;;;;;;29.45;18.80;;;;;;;2.57;73.76;102862.03;5245055;28;20072;-66
2022/03/20 03:27:33;;;;;;;30.27;18.90;;;;;;;2.52;74.08;102864.72;5246127;28;20538;-66
2022/03/20 03:30:05;;;;;;;29.70;19.23;;;;;;;2.54;74.17;102868.22;5280673;28;20456;-66
2022/03/20 03:32:36;;;;;;;31.40;19.13;;;;;;;2.53;73.37;102859.44;5248156;28;20056;-66
2022/03/20 03:38:03;;;;;;;;;;;;;;;2.48;72.97;102847.19;5247827;28;20036;-66
2022/03/20 03:40:34;;;;;;;33.70;20.00;;;;;;;2.47;74.20;102842.81;5245748;28;20379;-66
2022/03/20 03:43:06;;;;;;;30.50;19.77;;;;;;;2.40;73.38;102839.38;5241852;28;20033;-66
2022/03/20 03:45:39;;;;;;;34.13;20.48;;;;;;;2.39;73.34;102834.13;5236643;28;20547;-66
2022/03/20 03:48:11;;;;;;;31.00;19.88;;;;;;;2.40;74.25;102820.94;5240490;28;20027;-66
2022/03/20 03:50:45;;;;;;;31.73;20.13;;;;;;;2.38;73.80;102813.91;5231229;28;20056;-66
2022/03/20 03:53:16;;;;;;;27.13;19.50;;;;;;;2.34;73.71;102818.38;5238814;28;20056;-67
2022/03/20 03:55:48;;;;;;;31.75;20.17;;;;;;;2.32;73.75;102817.50;5235359;28;20035;-66
2022/03/20 03:58:19;;;;;;;34.22;21.15;;;;;;;2.33;74.19;102816.63;5246833;28;20037;-66
2022/03/20 04:00:50;;;;;;;30.58;19.45;;;;;;;2.29;74.01;102810.50;5240501;28;20021;-66
2022/03/20 04:03:22;;;;;;;28.75;18.73;;;;;;;2.27;74.22;102822.81;5240882;28;20391;-66
2022/03/20 04:05:54;;;;;;;28.92;19.88;;;;;;;2.22;73.52;102816.72;5241329;28;20454;-66
2022/03/20 04:08:26;;;;;;;30.83;20.00;;;;;;;2.20;73.88;102812.34;5245258;28;20043;-66
2022/03/20 04:10:57;;;;;;;31.13;20.48;;;;;;;2.18;73.66;102812.38;5238042;28;20496;-66
2022/03/20 04:13:29;;;;;;;32.90;20.70;;;;;;;2.15;74.05;102800.13;5239135;28;20039;-66
2022/03/20 04:16:00;;;;;;;31.58;20.10;;;;;;;2.15;75.36;102786.94;5246318;28;20490;-66
2022/03/20 04:18:31;;;;;;;31.02;20.13;;;;;;;2.10;74.52;102783.47;5240649;28;20112;-66
2022/03/20 04:21:04;;;;;;;30.15;19.92;;;;;;;2.05;74.56;102784.41;5237532;28;20035;-66
2022/03/20 04:23:45;;;;;;;36.45;20.67;;;;;;;2.04;75.82;102772.16;5234819;28;20030;-66
2022/03/20 04:26:20;;;;;;;31.13;20.63;;;;;;;1.98;74.94;102767.81;5237178;28;20512;-66
2022/03/20 04:28:52;;;;;;;29.90;20.83;;;;;;;1.95;75.49;102759.94;5233957;28;20029;-66
2022/03/20 04:31:24;;;;;;;31.60;20.95;;;;;;;1.93;75.96;102767.84;5234513;28;20036;-66
2022/03/20 04:33:56;;;;;;;31.52;20.95;;;;;;;1.83;75.49;102752.16;5237289;28;20094;-66
2022/03/20 04:36:27;;;;;;;36.25;21.35;;;;;;;1.83;75.70;102754.78;5239620;28;20040;-66
2022/03/20 04:39:00;;;;;;;32.53;20.88;;;;;;;1.82;75.72;102742.50;5232826;28;20032;-66
2022/03/20 04:41:32;;;;;;;36.03;21.77;;;;;;;1.79;76.28;102748.69;5240971;28;20037;-66
2022/03/20 04:44:03;;;;;;;33.17;21.15;;;;;;;1.75;76.02;102742.56;5239676;28;20036;-66
2022/03/20 04:46:34;;;;;;;35.03;21.60;;;;;;;1.76;76.88;102757.50;5236448;28;20036;-66
2022/03/20 05:00:26;;;;;;;37.08;22.20;;;;;;;1.61;77.95;102733.03;5237574;28;20565;-66
2022/03/20 05:02:57;;;;;;;33.22;21.65;;;;;;;1.56;76.67;102733.09;5244592;28;20021;-66
2022/03/20 05:05:28;;;;;;;35.33;22.33;;;;;;;1.54;77.66;102717.31;5237774;28;20082;-66
2022/03/20 05:07:59;;;;;;;31.73;21.20;;;;;;;1.54;77.38;102721.72;5239844;28;20037;-66
2022/03/20 05:13:21;;;;;;;35.92;22.60;;;;;;;1.50;78.09;102718.25;5241813;28;20045;-66
2022/03/20 05:15:58;;;;;;;35.03;22.02;;;;;;;1.50;78.86;102722.63;5242036;28;20475;-67
2022/03/20 05:18:29;;;;;;;34.35;22.60;;;;;;;1.45;77.68;102720.03;5239593;28;20545;-66
2022/03/20 05:21:01;;;;;;;30.33;21.67;;;;;;;1.42;77.78;102708.66;5235524;28;20033;-66
2022/03/20 05:23:33;;;;;;;32.83;21.67;;;;;;;1.37;77.50;102706.06;5244784;28;20116;-66
2022/03/20 05:26:05;;;;;;;35.85;21.52;;;;;;;1.35;77.47;102716.59;5230614;28;20047;-66
2022/03/20 05:28:36;;;;;;;34.55;21.50;;;;;;;1.33;77.64;102710.47;5236996;28;20029;-66
2022/03/20 05:31:07;;;;;;;32.53;21.80;;;;;;;1.34;77.85;102706.97;5240318;28;20037;-66
2022/03/20 05:33:39;;;;;;;33.25;21.15;;;;;;;1.34;78.86;102709.59;5239480;28;20120;-66
2022/03/20 05:36:10;;;;;;;32.95;21.55;;;;;;;1.29;77.63;102706.13;5241181;28;21990;-66
2022/03/20 05:38:41;;;;;;;36.85;22.98;;;;;;;1.31;78.79;102706.13;5240622;28;20044;-66
2022/03/20 05:44:03;;;;;;;32.53;21.38;;;;;;;1.22;77.75;102693.91;5239151;28;20135;-66
2022/03/20 05:46:34;;;;;;;35.72;22.02;;;;;;;1.25;78.31;102686.00;5241921;28;20116;-66
2022/03/20 05:49:06;;;;;;;32.42;21.50;;;;;;;1.21;78.33;102689.56;5239268;28;20040;-66
2022/03/20 05:51:38;;;;;;;37.22;22.58;;;;;;;1.24;78.64;102680.75;5240614;28;20036;-66
2022/03/20 05:54:09;;;;;;;33.65;22.27;;;;;;;1.24;79.02;102671.09;5239791;28;20530;-67
2022/03/20 05:59:35;;;;;;;33.28;20.58;;;;;;;1.21;77.51;102689.56;5234363;28;20072;-66
2022/03/20 06:02:09;;;;;;;35.20;21.83;;;;;;;1.18;77.54;102679.03;5239894;28;20471;-67
2022/03/20 06:04:40;;;;;;;32.80;21.67;;;;;;;1.25;77.74;102688.63;5238171;28;20067;-66
2022/03/20 06:07:12;;;;;;;32.83;21.45;;;;;;;1.26;78.54;102690.38;5242204;28;20056;-66
2022/03/20 06:09:43;;;;;;;33.13;21.60;;;;;;;1.24;78.28;102673.72;5238493;28;20029;-66
2022/03/20 06:12:14;;;;;;;33.85;21.80;;;;;;;1.27;77.46;102668.47;5237120;28;20609;-67
2022/03/20 06:14:48;;;;;;;34.58;22.40;;;;;;;1.30;77.61;102678.94;5275307;28;20175;-66
2022/03/20 06:17:20;;;;;;;31.27;21.02;;;;;;;1.30;76.22;102667.56;5233906;28;20375;-66
2022/03/20 06:19:52;;;;;;;31.80;21.00;;;;;;;1.34;76.78;102672.78;5237323;28;20040;-66
2022/03/20 06:22:23;;;;;;;33.75;21.98;;;;;;;1.40;77.65;102670.97;5240057;28;20068;-66
2022/03/20 06:24:54;;;;;;;33.30;21.67;;;;;;;1.34;77.03;102670.16;5240334;28;20558;-66
2022/03/20 06:27:26;;;;;;;33.40;21.17;;;;;;;1.43;76.32;102673.59;5243458;28;20128;-66
2022/03/20 06:29:57;;;;;;;34.15;20.98;;;;;;;1.46;75.73;102674.44;5240490;28;20097;-66
2022/03/20 06:32:28;;;;;;;33.40;20.77;;;;;;;1.54;76.49;102671.72;5243707;28;20037;-66
2022/03/20 06:35:00;;;;;;;31.33;20.60;;;;;;;1.56;75.74;102678.72;5243586;28;20029;-66
2022/03/20 06:37:39;;;;;;;28.65;19.45;;;;;;;1.63;74.62;102676.91;5240536;28;20032;-66
2022/03/20 06:40:13;;;;;;;29.65;19.17;;;;;;;1.75;74.30;102661.00;5241744;28;20055;-66
2022/03/20 06:42:45;;;;;;;32.75;19.80;;;;;;;1.83;73.01;102657.41;5242813;28;20437;-66
2022/03/20 06:45:19;;;;;;;29.63;19.50;;;;;;;1.93;72.28;102652.00;5243306;28;20025;-66
2022/03/20 06:47:50;;;;;;;29.67;19.67;;;;;;;2.08;73.11;102653.59;5245411;28;20035;-67
2022/03/20 06:50:22;;;;;;;31.08;19.60;;;;;;;2.20;72.71;102643.81;5244781;28;20479;-66
2022/03/20 06:52:53;;;;;;;30.90;19.30;;;;;;;2.29;71.24;102639.31;5242929;28;20046;-66
2022/03/20 06:55:24;;;;;;;30.08;19.00;;;;;;;2.39;70.67;102647.09;5243116;28;20086;-66
2022/03/20 06:57:56;;;;;;;30.35;19.15;;;;;;;2.51;69.44;102639.00;5244663;28;20037;-67
2022/03/20 07:00:30;;;;;;;29.75;19.05;;;;;;;2.62;70.44;102631.81;5239877;28;20040;-67
2022/03/20 07:03:03;;;;;;;;;;;;;;;2.69;70.81;102635.25;5245915;28;20060;-67
2022/03/20 07:05:39;;;;;;;28.10;18.63;;;;;;;2.79;69.16;102642.13;5237979;28;19932;-67
2022/03/20 07:08:10;;;;;;;31.40;17.35;;;;;;;2.86;67.80;102630.59;5243961;28;20374;-66
2022/03/20 07:10:42;;;;;;;27.75;18.00;;;;;;;2.95;68.48;102632.19;5240287;28;20083;-67
2022/03/20 07:16:03;;;;;;;27.52;17.33;;;;;;;3.10;67.17;102618.78;5244649;28;20057;-67
2022/03/20 07:18:36;;;;;;;31.88;18.38;;;;;;;3.18;67.13;102620.41;5244110;28;20049;-67
2022/03/20 07:21:08;;;;;;;25.48;17.55;;;;;;;3.28;67.39;102611.44;5241840;28;20036;-67
2022/03/20 07:23:40;;;;;;;28.75;17.95;;;;;;;3.32;64.27;102606.09;5243420;28;20040;-67
2022/03/20 07:31:52;;;;;;;27.88;17.60;;;;;;;3.58;62.60;102586.25;5241799;28;20708;-67
2022/03/20 07:34:24;;;;;;;28.10;17.15;;;;;;;3.64;63.07;102594.06;5239759;28;20589;-67
2022/03/20 07:36:55;;;;;;;25.60;17.27;;;;;;;3.71;61.43;102598.31;5240799;28;20410;-67
2022/03/20 07:39:27;;;;;;;25.63;16.98;;;;;;;3.78;63.10;102592.91;5238246;28;20033;-67
2022/03/20 07:41:59;;;;;;;26.30;16.80;;;;;;;3.80;62.43;102607.84;5233157;28;21606;-67
2022/03/20 07:44:31;;;;;;;24.83;17.08;;;;;;;3.83;62.07;102597.22;5236862;28;21260;-67
2022/03/20 07:47:08;;;;;;;28.35;17.10;;;;;;;3.86;63.11;102606.84;5240238;28;20039;-67
2022/03/20 07:49:40;;;;;;;26.27;16.45;;;;;;;3.87;59.71;102598.03;5237813;28;20467;-67
2022/03/20 07:52:11;;;;;;;24.77;16.60;;;;;;;3.93;61.71;102603.16;5236295;28;20564;-67
2022/03/20 07:54:44;;;;;;;27.40;17.30;;;;;;;3.95;59.17;102597.84;5237070;28;20033;-67
2022/03/20 07:57:16;;;;;;;28.77;16.52;;;;;;;4.00;58.64;102601.28;5234689;28;20075;-67
2022/03/20 07:59:48;;;;;;;25.23;17.00;;;;;;;4.03;59.84;102603.88;5236415;28;20033;-67
2022/03/20 08:02:19;;;;;;;26.95;15.90;;;;;;;4.03;59.99;102606.53;5232671;28;20071;-67
2022/03/20 08:04:54;;;;;;;23.92;16.52;;;;;;;4.04;60.35;102595.91;5234439;28;20031;-67
2022/03/20 08:07:25;;;;;;;24.90;16.65;;;;;;;4.05;59.21;102600.28;5234571;28;20048;-67
2022/03/20 08:09:56;;;;;;;24.35;16.17;;;;;;;4.01;57.65;102589.81;5234354;28;20511;-67
2022/03/20 08:12:27;;;;;;;25.02;16.48;;;;;;;4.01;58.06;102595.09;5235923;28;20041;-67
2022/03/20 08:14:59;;;;;;;30.13;17.48;;;;;;;4.02;58.28;102595.06;5229496;28;20434;-67
2022/03/20 08:17:30;;;;;;;24.98;16.98;;;;;;;4.04;58.19;102595.03;5233551;28;20574;-67
2022/03/20 08:20:02;;;;;;;25.83;16.45;;;;;;;4.08;57.95;102596.72;5235374;28;20038;-67
2022/03/20 08:22:33;;;;;;;25.83;16.33;;;;;;;4.16;60.92;102599.19;5234242;28;20364;-67
2022/03/20 08:25:06;;;;;;;25.58;15.48;;;;;;;4.16;58.04;102583.34;5237195;28;20041;-67
2022/03/20 08:27:44;;;;;;;26.45;16.95;;;;;;;4.17;58.05;102580.66;5238364;28;20043;-67
2022/03/20 08:30:17;;;;;;;25.05;17.25;;;;;;;4.20;59.97;102585.91;5231355;28;20035;-67
2022/03/20 08:32:52;;;;;;;25.05;16.30;;;;;;;4.26;60.28;102572.53;5230262;28;20032;-67
2022/03/20 08:35:23;;;;;;;28.25;17.13;;;;;;;4.32;61.18;102567.13;5234996;28;20086;-67
2022/03/20 08:37:55;;;;;;;23.42;15.93;;;;;;;4.41;57.97;102573.09;5232052;28;20037;-67
2022/03/20 08:40:26;;;;;;;26.27;16.70;;;;;;;4.40;59.36;102559.00;5234145;28;21300;-67
2022/03/20 08:42:57;;;;;;;26.75;17.58;;;;;;;4.43;60.21;102566.00;5237636;28;20036;-67
2022/03/20 08:45:31;;;;;;;26.63;16.55;;;;;;;4.46;58.62;102558.88;5242146;28;20458;-67
2022/03/20 08:48:03;;;;;;;25.08;16.63;;;;;;;4.47;58.20;102562.41;5251075;28;20036;-67
2022/03/20 08:50:34;;;;;;;26.52;16.05;;;;;;;4.42;58.11;102569.56;5240140;28;20411;-67
2022/03/20 08:53:05;;;;;;;24.48;17.05;;;;;;;4.53;59.10;102572.81;5235047;28;20052;-67
2022/03/20 08:55:37;;;;;;;26.85;16.52;;;;;;;4.53;58.76;102571.97;5236790;28;20206;-67
2022/03/20 08:58:08;;;;;;;27.90;17.05;;;;;;;4.51;57.62;102579.91;5234871;28;20032;-67
2022/03/20 09:00:41;;;;;;;25.45;16.13;;;;;;;4.57;58.71;102565.69;5232350;28;20087;-67
2022/03/20 09:03:13;;;;;;;26.80;17.25;;;;;;;4.54;59.46;102573.69;5246480;28;20025;-67
2022/03/20 09:05:44;;;;;;;26.25;16.02;;;;;;;4.56;57.54;102577.16;5244726;28;20041;-67
2022/03/20 09:08:16;;;;;;;25.15;16.85;;;;;;;4.57;58.58;102557.75;5238609;28;20467;-67
2022/03/20 09:10:51;;;;;;;25.90;17.13;;;;;;;4.61;56.02;102559.44;5244037;28;20033;-67
2022/03/20 09:13:22;;;;;;;29.10;16.92;;;;;;;4.64;56.07;102549.66;5249949;28;20107;-67
2022/03/20 09:18:59;;;;;;;30.75;17.27;;;;;;;4.82;57.87;102543.03;5239839;28;20109;-67
2022/03/20 09:19:00;;;;;;;26.60;17.50;;;;;;;4.98;56.06;102535.56;5245649;28;20087;-67
2022/03/20 09:21:34;;;;;;;26.80;16.92;;;;;;;5.35;55.48;102541.66;5247414;28;20036;-67
2022/03/20 09:24:06;;;;;;;25.65;17.08;;;;;;;5.58;55.52;102539.25;5244820;28;20036;-68
2022/03/20 09:26:37;;;;;;;26.33;17.52;;;;;;;5.80;55.39;102538.63;5245478;28;20435;-67
2022/03/20 09:29:09;;;;;;;25.02;16.88;;;;;;;5.88;53.90;102520.72;5246707;28;20037;-67
2022/03/20 09:31:40;;;;;;;25.65;17.58;;;;;;;5.97;54.03;102524.94;5245301;28;20025;-67
2022/03/20 09:34:11;;;;;;;29.10;17.83;;;;;;;5.99;54.57;102518.66;5244804;28;20089;-67
2022/03/20 09:36:43;;;;;;;29.63;17.13;;;;;;;6.03;53.04;102511.50;5246208;28;20736;-67
2022/03/20 09:39:14;;;;;;;28.85;17.55;;;;;;;6.06;52.86;102514.91;5244807;28;20077;-67
2022/03/20 09:41:47;;;;;;;26.90;17.75;;;;;;;6.13;53.07;102512.06;5238872;28;20051;-67
2022/03/20 09:44:21;;;;;;;27.33;17.90;;;;;;;6.31;54.53;102489.41;5245539;28;20099;-68
2022/03/20 09:46:53;;;;;;;27.13;17.73;;;;;;;6.46;50.92;102492.44;5231798;28;20112;-67
2022/03/20 09:49:25;;;;;;;26.92;18.27;;;;;;;6.59;49.87;102494.69;5242524;28;20452;-67
2022/03/20 09:51:57;;;;;;;29.77;17.92;;;;;;;6.72;51.87;102492.50;5237281;28;20113;-67
2022/03/20 09:54:28;;;;;;;25.08;17.73;;;;;;;6.78;51.67;102498.44;5237432;28;21085;-68
2022/03/20 09:57:04;;;;;;;26.70;18.13;;;;;;;6.84;50.33;102490.28;5241205;28;20064;-67
2022/03/20 09:59:38;;;;;;;29.35;18.13;;;;;;;6.97;50.20;102501.34;5239920;28;20049;-68
2022/03/20 10:02:11;;;;;;;28.25;19.42;;;;;;;7.16;51.33;102506.88;5243299;28;20033;-68
2022/03/20 10:04:58;;;;;;;27.98;18.67;;;;;;;7.25;52.95;102508.34;5245823;28;20033;-67
2022/03/20 10:07:35;;;;;;;27.25;18.63;;;;;;;7.16;50.49;102504.22;5251364;28;20516;-68
2022/03/20 10:10:09;;;;;;;25.85;18.35;;;;;;;7.16;51.16;102492.75;5247771;28;20036;-68
2022/03/20 10:12:47;;;;;;;29.02;19.63;;;;;;;7.14;50.89;102500.75;5254322;28;20486;-68
2022/03/20 10:15:36;;;;;;;31.40;20.92;;;;;;;7.21;51.88;102504.94;5252536;28;20060;-68
2022/03/20 10:18:14;;;;;;;27.15;19.00;;;;;;;7.18;50.20;102506.81;5252973;28;20031;-67
2022/03/20 10:20:47;;;;;;;28.30;19.58;;;;;;;7.13;52.19;102499.00;5245084;28;20036;-68
2022/03/20 10:23:39;;;;;;;27.83;19.65;;;;;;;7.10;53.04;102500.94;5251678;28;20095;-67
2022/03/20 10:26:13;;;;;;;28.73;20.52;;;;;;;7.02;52.65;102501.19;5254214;28;20039;-67
2022/03/20 10:28:49;;;;;;;34.70;22.70;;;;;;;7.05;52.25;102498.41;5248911;28;20523;-67
2022/03/20 10:31:21;;;;;;;31.17;21.58;;;;;;;7.07;53.46;102494.78;5251883;28;20044;-68
2022/03/20 10:34:04;;;;;;;31.17;21.73;;;;;;;7.22;53.57;102496.03;5246681;28;20036;-67
2022/03/20 10:36:36;;;;;;;31.30;22.15;;;;;;;7.36;51.76;102495.53;5245571;28;20797;-67
2022/03/20 10:39:16;;;;;;;34.78;23.08;;;;;;;7.44;54.17;102492.59;5241910;28;20067;-67
2022/03/20 10:41:51;;;;;;;34.58;23.40;;;;;;;7.50;55.24;102497.69;5248540;28;20043;-67
2022/03/20 10:44:27;;;;;;;33.13;23.27;;;;;;;7.62;55.85;102502.53;5249497;28;20176;-67
2022/03/20 10:47:13;;;;;;;36.50;24.45;;;;;;;7.81;56.16;102505.38;5254372;28;20037;-68
2022/03/20 10:50:08;;;;;;;34.75;23.63;;;;;;;7.99;57.41;102494.94;5244585;28;20029;-67
2022/03/20 10:52:39;;;;;;;35.17;22.40;;;;;;;8.02;57.53;102500.16;5249434;28;20064;-68
2022/03/20 10:55:12;;;;;;;33.42;23.25;;;;;;;8.04;56.64;102503.63;5250861;28;20017;-68
2022/03/20 10:57:43;;;;;;;29.60;21.75;;;;;;;8.16;56.90;102512.91;5253154;28;20090;-67
2022/03/20 11:00:15;;;;;;;33.42;24.17;;;;;;;8.16;58.28;102508.44;5247773;28;20033;-68
2022/03/20 11:02:47;;;;;;;32.08;23.55;;;;;;;8.15;57.37;102509.38;5251620;28;20391;-68
2022/03/20 11:05:20;;;;;;;34.35;24.33;;;;;;;8.15;58.06;102506.72;5250510;28;20044;-67
2022/03/20 11:07:51;;;;;;;33.20;23.70;;;;;;;8.11;58.73;102521.06;5251894;28;20041;-67
2022/03/20 11:10:23;;;;;;;35.67;24.50;;;;;;;8.00;59.03;102518.81;5249863;28;20024;-68
2022/03/20 11:12:57;;;;;;;35.33;24.85;;;;;;;7.97;59.57;102534.00;5241091;28;20466;-67
2022/03/20 11:15:29;;;;;;;34.63;25.00;;;;;;;7.86;60.30;102529.09;5252733;28;20084;-68
2022/03/20 11:18:02;;;;;;;34.75;24.50;;;;;;;7.84;61.75;102531.84;5249508;28;20043;-68
2022/03/20 11:20:34;;;;;;;35.00;25.10;;;;;;;7.85;61.22;102519.41;5247487;28;20417;-68
2022/03/20 11:23:06;;;;;;;37.17;25.95;;;;;;;7.88;62.44;102527.28;5253455;28;20087;-67
2022/03/20 11:25:38;;;;;;;38.25;25.50;;;;;;;7.87;61.43;102519.34;5251960;28;20025;-67
2022/03/20 11:28:12;;;;;;;33.78;24.30;;;;;;;7.92;62.12;102515.59;5251139;28;20067;-68
2022/03/20 11:30:47;;;;;;;31.63;23.17;;;;;;;7.93;61.77;102521.78;5250677;28;20483;-68
2022/03/20 11:33:22;;;;;;;35.70;24.58;;;;;;;8.04;61.86;102514.25;5246286;28;20431;-68
2022/03/20 11:35:54;;;;;;;35.38;25.33;;;;;;;8.11;62.32;102510.44;5251121;28;20083;-67
2022/03/20 11:38:25;;;;;;;35.33;24.38;;;;;;;8.24;61.42;102519.63;5247625;28;20040;-68
2022/03/20 11:41:12;;;;;;;32.08;23.55;;;;;;;8.32;61.13;102506.06;5246787;28;20033;-68
2022/03/20 11:43:45;;;;;;;33.45;24.55;;;;;;;8.36;61.56;102502.34;5249584;28;20471;-67
2022/03/20 11:46:28;;;;;;;34.92;25.02;;;;;;;8.34;61.93;102519.28;5247901;28;20091;-68
2022/03/20 11:49:15;;;;;;;33.15;23.95;;;;;;;8.43;63.09;102518.94;5250898;28;20025;-68
2022/03/20 11:51:56;;;;;;;35.78;24.25;;;;;;;8.33;62.18;102530.84;5251492;28;20540;-68
2022/03/20 11:54:39;;;;;;;33.65;24.17;;;;;;;8.31;61.33;102511.44;5248330;28;20570;-68
2022/03/20 11:57:29;;;;;;;35.38;25.27;;;;;;;8.31;61.54;102512.28;5252306;28;20032;-68
2022/03/20 12:00:13;;;;;;;33.25;23.77;;;;;;;8.25;61.39;102505.41;5245318;28;20064;-68
2022/03/20 12:02:50;;;;;;;34.47;24.20;;;;;;;8.08;65.53;102507.03;5247978;28;20035;-67
2022/03/20 12:05:35;;;;;;;34.90;24.98;;;;;;;7.93;64.63;102527.09;5245399;28;20040;-68
2022/03/20 12:08:27;;;;;;;33.50;24.30;;;;;;;7.82;64.90;102522.16;5249438;28;20033;-67
2022/03/20 12:11:24;;;;;;;33.15;24.60;;;;;;;7.75;64.80;102512.72;5242303;28;20460;-67
2022/03/20 12:14:13;;;;;;;35.17;23.63;;;;;;;7.77;64.10;102493.13;5248943;28;20029;-67
2022/03/20 12:16:45;;;;;;;37.22;24.40;;;;;;;7.78;64.72;102501.97;5246870;28;20036;-68
2022/03/20 12:19:21;;;;;;;32.50;23.80;;;;;;;7.78;64.27;102504.63;5245688;28;20041;-68
2022/03/20 12:21:54;;;;;;;38.28;25.08;;;;;;;7.74;64.82;102497.69;5249012;28;22218;-67
2022/03/20 12:24:34;;;;;;;35.00;25.60;;;;;;;7.75;64.52;102488.81;5246297;28;20548;-68